createdAt,value
2019-03-25T00:01:30.013Z,5.00
2019-03-25T00:05:35.014Z,5.10
2019-03-25T00:09:40.005Z,5.20
2019-03-25T00:13:45.973Z,5.40
2019-03-25T00:17:51.062Z,5.40
2019-03-25T00:21:56.056Z,5.50
2019-03-25T00:26:01.062Z,5.50
2019-03-25T00:30:06.786Z,5.50
2019-03-25T00:34:11.782Z,5.50
2019-03-25T00:38:16.782Z,5.50
2019-03-25T00:42:21.847Z,5.40
2019-03-25T00:46:26.886Z,5.30
2019-03-25T00:50:31.863Z,5.30
2019-03-25T00:54:36.863Z,5.30
2019-03-25T00:58:41.857Z,5.30
2019-03-25T01:02:46.930Z,5.10
2019-03-25T01:06:51.923Z,4.90
2019-03-25T01:10:56.914Z,4.80
2019-03-25T01:15:01.985Z,4.70
2019-03-25T01:19:06.987Z,4.60
2019-03-25T01:23:12.081Z,4.60
2019-03-25T01:27:17.082Z,4.50
2019-03-25T01:31:22.062Z,4.30
2019-03-25T01:35:27.113Z,4.20
2019-03-25T01:39:32.110Z,4.20
2019-03-25T01:43:37.114Z,4.10
2019-03-25T01:47:42.113Z,4.10
2019-03-25T01:51:47.113Z,4.20
2019-03-25T01:55:52.085Z,4.20
2019-03-25T01:59:57.090Z,4.30
2019-03-25T02:04:03.155Z,4.30
2019-03-25T02:08:08.156Z,4.30
2019-03-25T02:12:13.157Z,4.30
2019-03-25T02:16:18.129Z,4.30
2019-03-25T02:20:26.801Z,4.20
2019-03-25T02:24:29.877Z,4.20
2019-03-25T02:28:34.861Z,4.00
2019-03-25T02:32:41.031Z,3.80
2019-03-25T02:36:46.023Z,3.70
2019-03-25T02:40:51.119Z,3.70
2019-03-25T02:44:56.185Z,3.80
2019-03-25T02:49:01.250Z,3.90
2019-03-25T02:53:06.241Z,4.00
2019-03-25T02:57:11.296Z,4.10
2019-03-25T03:01:16.274Z,4.10
2019-03-25T03:05:21.274Z,4.20
2019-03-25T03:09:26.330Z,4.20
2019-03-25T03:13:31.366Z,4.10
2019-03-25T03:17:36.366Z,4.10
2019-03-25T03:21:41.349Z,4.10
2019-03-25T03:25:57.111Z,4.10
2019-03-25T03:29:52.974Z,4.10
2019-03-25T03:33:57.951Z,4.10
2019-03-25T03:38:02.945Z,4.00
2019-03-25T03:42:08.086Z,3.80
2019-03-25T03:46:13.163Z,3.70
2019-03-25T03:50:23.747Z,3.50
2019-03-25T03:54:28.746Z,3.40
2019-03-25T03:58:34.483Z,3.40
2019-03-25T04:02:39.489Z,3.40
2019-03-25T04:06:44.467Z,3.40
2019-03-25T04:10:49.473Z,3.40
2019-03-25T04:14:54.470Z,3.30
2019-03-25T04:18:59.471Z,3.30
2019-03-25T04:23:04.461Z,3.20
2019-03-25T04:27:09.442Z,3.20
2019-03-25T04:31:14.442Z,3.10
2019-03-25T04:35:19.437Z,3.00
2019-03-25T04:39:24.440Z,3.10
2019-03-25T04:43:29.442Z,3.00
2019-03-25T04:47:34.417Z,3.10
2019-03-25T04:51:39.418Z,3.10
2019-03-25T04:55:44.409Z,3.20
2019-03-25T04:59:49.405Z,3.30
2019-03-25T05:03:54.674Z,3.40
2019-03-25T05:07:59.666Z,3.30
2019-03-25T05:12:04.658Z,3.30
2019-03-25T05:16:09.654Z,3.40
2019-03-25T05:20:14.659Z,3.40
2019-03-25T05:24:19.656Z,3.40
2019-03-25T05:28:24.724Z,3.40
2019-03-25T05:32:29.698Z,3.50
2019-03-25T05:36:34.682Z,4.00
2019-03-25T05:40:39.673Z,4.90
2019-03-25T05:44:44.690Z,6.70
2019-03-25T05:48:49.657Z,8.00
2019-03-25T05:52:54.646Z,7.10
2019-03-25T05:57:02.724Z,6.50
2019-03-25T06:01:06.318Z,6.60
2019-03-25T06:05:11.589Z,7.60
2019-03-25T06:09:16.858Z,7.70
2019-03-25T06:13:21.838Z,7.90
2019-03-25T06:17:28.918Z,7.50
2019-03-25T06:21:34.196Z,8.40
2019-03-25T06:25:39.470Z,11.00
2019-03-25T06:29:44.746Z,11.30
2019-03-25T06:33:50.017Z,9.80
2019-03-25T06:37:55.291Z,7.90
2019-03-25T06:42:00.574Z,6.70
2019-03-25T06:46:05.858Z,6.20
2019-03-25T06:50:11.497Z,5.80
2019-03-25T06:54:16.493Z,5.50
2019-03-25T06:58:21.930Z,5.30
2019-03-25T07:02:26.955Z,5.20
2019-03-25T07:06:31.952Z,5.00
2019-03-25T07:10:37.888Z,4.90
2019-03-25T07:14:43.257Z,4.90
2019-03-25T07:18:48.221Z,4.90
2019-03-25T07:22:53.362Z,4.90
2019-03-25T07:26:58.353Z,4.90
2019-03-25T07:31:03.344Z,4.90
2019-03-25T07:35:08.592Z,4.80
2019-03-25T07:39:13.660Z,4.80
2019-03-25T07:43:18.642Z,5.10
2019-03-25T07:47:23.646Z,6.20
2019-03-25T07:51:28.708Z,7.80
2019-03-25T07:55:33.702Z,7.70
2019-03-25T07:59:38.764Z,6.50
2019-03-25T08:03:43.758Z,5.50
2019-03-25T08:07:48.727Z,4.90
2019-03-25T08:11:53.727Z,4.70
2019-03-25T08:15:58.725Z,4.80
2019-03-25T08:20:08.874Z,5.30
2019-03-25T08:24:13.845Z,5.60
2019-03-25T08:28:18.834Z,5.70
2019-03-25T08:32:23.830Z,5.40
2019-03-25T08:36:28.834Z,5.20
2019-03-25T08:40:33.888Z,4.90
2019-03-25T08:44:38.820Z,4.60
2019-03-25T08:48:43.814Z,4.50
2019-03-25T08:52:49.883Z,4.50
2019-03-25T08:56:54.877Z,4.80
2019-03-25T09:00:59.871Z,5.00
2019-03-25T09:05:07.812Z,5.20
2019-03-25T09:09:12.773Z,5.40
2019-03-25T09:13:17.765Z,5.70
2019-03-25T09:17:22.841Z,6.10
2019-03-25T09:21:27.831Z,6.10
2019-03-25T09:25:32.826Z,5.80
2019-03-25T09:29:37.869Z,5.90
2019-03-25T09:33:42.936Z,6.40
2019-03-25T09:37:47.953Z,6.50
2019-03-25T09:41:52.953Z,6.40
2019-03-25T09:45:58.330Z,6.60
2019-03-25T09:50:04.625Z,8.40
2019-03-25T09:54:11.542Z,9.70
2019-03-25T09:58:16.813Z,9.10
2019-03-25T10:02:22.086Z,8.10
2019-03-25T10:06:27.429Z,7.60
2019-03-25T10:10:33.280Z,7.40
2019-03-25T10:14:38.549Z,7.60
2019-03-25T10:18:43.898Z,7.70
2019-03-25T10:22:49.203Z,7.20
2019-03-25T10:26:54.487Z,7.00
2019-03-25T10:30:59.754Z,7.60
2019-03-25T10:35:06.713Z,8.00
2019-03-25T10:39:12.022Z,8.60
2019-03-25T10:43:17.249Z,9.50
2019-03-25T10:47:22.529Z,9.60
2019-03-25T10:51:29.526Z,9.30
2019-03-25T10:55:35.913Z,8.90
2019-03-25T10:59:41.185Z,8.60
2019-03-25T11:03:46.461Z,10.90
2019-03-25T11:07:51.743Z,12.30
2019-03-25T11:11:57.026Z,14.00
2019-03-25T11:16:02.306Z,12.40
2019-03-25T11:20:08.487Z,10.60
2019-03-25T11:24:15.174Z,9.10
2019-03-25T11:28:20.614Z,8.60
2019-03-25T11:32:25.881Z,8.40
2019-03-25T11:36:31.153Z,12.50
2019-03-25T11:40:36.405Z,17.20
2019-03-25T11:44:41.832Z,18.60
2019-03-25T11:48:47.237Z,15.80
2019-03-25T11:52:52.513Z,13.70
2019-03-25T11:56:57.787Z,13.60
2019-03-25T12:01:03.029Z,13.40
2019-03-25T12:05:08.848Z,13.50
2019-03-25T12:09:14.142Z,13.00
2019-03-25T12:13:19.495Z,12.60
2019-03-25T12:17:24.765Z,12.40
2019-03-25T12:21:30.034Z,12.00
2019-03-25T12:25:35.333Z,11.90
2019-03-25T12:29:40.622Z,11.40
2019-03-25T12:33:45.882Z,11.10
2019-03-25T12:37:51.198Z,10.80
2019-03-25T12:41:56.553Z,10.70
2019-03-25T12:46:01.811Z,10.60
2019-03-25T12:50:07.830Z,10.90
2019-03-25T12:54:13.111Z,11.20
2019-03-25T12:58:18.374Z,11.50
2019-03-25T13:02:23.813Z,11.20
2019-03-25T13:06:29.083Z,10.60
2019-03-25T13:10:34.430Z,10.10
2019-03-25T13:14:39.701Z,10.30
2019-03-25T13:18:44.989Z,10.80
2019-03-25T13:22:50.229Z,11.30
2019-03-25T13:26:55.500Z,11.40
2019-03-25T13:31:00.773Z,11.10
2019-03-25T13:35:07.081Z,10.80
2019-03-25T13:39:12.353Z,10.70
2019-03-25T13:43:17.632Z,10.00
2019-03-25T13:47:22.897Z,8.70
2019-03-25T13:51:28.177Z,7.70
2019-03-25T13:55:33.506Z,6.80
2019-03-25T13:59:38.536Z,6.20
2019-03-25T14:03:43.525Z,5.60
2019-03-25T14:07:48.515Z,5.40
2019-03-25T14:11:53.554Z,5.60
2019-03-25T14:15:58.836Z,5.90
2019-03-25T14:20:05.530Z,6.20
2019-03-25T14:24:10.524Z,6.10
2019-03-25T14:28:15.830Z,6.20
2019-03-25T14:32:20.737Z,6.50
2019-03-25T14:36:25.721Z,6.70
2019-03-25T14:40:30.990Z,6.80
2019-03-25T14:44:36.263Z,7.00
2019-03-25T14:48:41.524Z,7.00
2019-03-25T14:52:46.882Z,6.90
2019-03-25T14:56:52.120Z,7.10
2019-03-25T15:00:57.378Z,6.90
2019-03-25T15:05:02.448Z,6.70
2019-03-25T15:09:07.941Z,6.50
2019-03-25T15:13:13.200Z,6.50
2019-03-25T15:17:18.437Z,6.60
2019-03-25T15:21:23.702Z,6.30
2019-03-25T15:25:28.966Z,6.10
2019-03-25T15:29:33.966Z,5.70
2019-03-25T15:33:39.018Z,4.90
2019-03-25T15:37:43.998Z,4.00
2019-03-25T15:41:49.113Z,3.40
2019-03-25T15:45:54.121Z,3.10
2019-03-25T15:49:59.117Z,3.10
2019-03-25T15:54:04.531Z,3.30
2019-03-25T15:58:09.486Z,3.50
2019-03-25T16:02:14.474Z,3.80
2019-03-25T16:06:19.581Z,3.90
2019-03-25T16:10:24.589Z,4.00
2019-03-25T16:14:29.585Z,4.00
2019-03-25T16:18:39.350Z,3.90
2019-03-25T16:22:46.420Z,3.80
2019-03-25T16:26:51.946Z,3.50
2019-03-25T16:30:59.083Z,3.30
2019-03-25T16:35:05.226Z,3.10
2019-03-25T16:39:10.209Z,3.10
2019-03-25T16:43:15.265Z,3.10
2019-03-25T16:47:20.256Z,3.10
2019-03-25T16:51:25.238Z,3.20
2019-03-25T16:55:30.229Z,3.20
2019-03-25T16:59:35.222Z,3.10
2019-03-25T17:03:40.222Z,3.10
2019-03-25T17:07:45.224Z,3.10
2019-03-25T17:11:50.210Z,3.00
2019-03-25T17:15:55.205Z,3.00
2019-03-25T17:20:00.374Z,3.00
2019-03-25T17:24:05.649Z,3.00
2019-03-25T17:28:10.692Z,3.00
2019-03-25T17:32:15.890Z,2.90
2019-03-25T17:36:20.882Z,2.90
2019-03-25T17:40:25.989Z,2.90
2019-03-25T17:44:31.174Z,2.90
2019-03-25T17:48:36.556Z,2.80
2019-03-25T17:52:41.781Z,2.80
2019-03-25T17:56:46.945Z,2.90
2019-03-25T18:00:55.150Z,2.80
2019-03-25T18:05:00.316Z,2.70
2019-03-25T18:09:07.293Z,2.70
2019-03-25T18:13:21.950Z,2.60
2019-03-25T18:17:18.925Z,2.70
2019-03-25T18:21:23.976Z,2.80
2019-03-25T18:25:28.922Z,2.80
2019-03-25T18:29:34.138Z,2.80
2019-03-25T18:33:39.128Z,2.70
2019-03-25T18:37:44.631Z,2.60
2019-03-25T18:41:49.837Z,2.40
2019-03-25T18:45:54.853Z,2.40
2019-03-25T18:49:59.858Z,2.40
2019-03-25T18:54:04.920Z,2.50
2019-03-25T18:58:09.947Z,2.50
2019-03-25T19:02:14.916Z,2.50
2019-03-25T19:06:20.015Z,2.60
2019-03-25T19:10:28.487Z,2.60
2019-03-25T19:14:33.478Z,2.40
2019-03-25T19:18:38.465Z,2.30
2019-03-25T19:22:43.595Z,2.20
2019-03-25T19:26:48.712Z,2.10
2019-03-25T19:30:58.586Z,2.00
2019-03-25T19:35:05.232Z,1.80
2019-03-25T19:39:10.272Z,1.70
2019-03-25T19:43:15.252Z,1.50
2019-03-25T19:47:20.272Z,1.40
2019-03-25T19:51:26.883Z,1.30
2019-03-25T19:55:31.892Z,1.20
2019-03-25T19:59:36.870Z,1.10
2019-03-25T20:03:41.885Z,1.00
2019-03-25T20:07:58.466Z,1.00
2019-03-25T20:12:20.122Z,0.90
2019-03-25T20:16:25.282Z,0.80
2019-03-25T20:20:30.265Z,0.70
2019-03-25T20:24:35.241Z,0.70
2019-03-25T20:28:41.213Z,0.60
2019-03-25T20:32:46.214Z,0.70
2019-03-25T20:36:51.218Z,0.60
2019-03-25T20:40:56.210Z,0.50
2019-03-25T20:45:01.195Z,0.50
2019-03-25T20:49:06.259Z,0.50
2019-03-25T20:53:11.265Z,0.60
2019-03-25T20:57:16.272Z,0.60
2019-03-25T21:01:21.329Z,0.60
2019-03-25T21:05:26.455Z,0.60
2019-03-25T21:09:31.396Z,0.70
2019-03-25T21:13:36.425Z,0.90
2019-03-25T21:17:41.398Z,1.10
2019-03-25T21:21:46.406Z,1.30
2019-03-25T21:25:51.515Z,1.40
2019-03-25T21:29:56.674Z,1.50
2019-03-25T21:34:01.726Z,1.70
2019-03-25T21:38:06.775Z,1.80
2019-03-25T21:42:11.815Z,1.90
2019-03-25T21:46:17.883Z,2.00
2019-03-25T21:50:22.882Z,2.10
2019-03-25T21:54:27.990Z,2.10
2019-03-25T21:58:33.041Z,2.10
2019-03-25T22:02:38.049Z,2.10
2019-03-25T22:06:43.089Z,2.20
2019-03-25T22:10:48.157Z,2.30
2019-03-25T22:14:53.182Z,2.30
2019-03-25T22:18:58.182Z,2.40
2019-03-25T22:23:03.211Z,2.50
2019-03-25T22:27:08.170Z,2.50
2019-03-25T22:31:13.171Z,2.60
2019-03-25T22:35:18.165Z,2.60
2019-03-25T22:39:23.193Z,2.60
2019-03-25T22:43:28.190Z,2.60
2019-03-25T22:47:33.197Z,2.60
2019-03-25T22:51:38.173Z,2.70
2019-03-25T22:55:43.193Z,2.70
2019-03-25T22:59:48.191Z,2.70
2019-03-25T23:03:53.200Z,2.70
2019-03-25T23:07:58.230Z,2.80
2019-03-25T23:12:03.220Z,2.80
2019-03-25T23:16:08.217Z,2.80
2019-03-25T23:20:14.365Z,2.80
2019-03-25T23:24:19.433Z,2.90
2019-03-25T23:28:24.502Z,2.90
2019-03-25T23:32:29.476Z,2.90
2019-03-25T23:36:34.489Z,2.90
2019-03-25T23:40:39.483Z,3.00
2019-03-25T23:44:44.492Z,3.00
2019-03-25T23:48:49.489Z,3.00
2019-03-25T23:52:54.481Z,3.00
2019-03-25T23:56:59.469Z,3.10
